Buffalo Niagara International Airport
KBUF : rendu visible

Aérodrome :











RETROUVEZ-NOUS SUR...

 
LOGIN :

S'inscrire | Disclaimer

   EN    FR    IT 

 









Légende :    VFR   VFR Marginal   IFR   IFR Intensif   IFR Très Intensif
Visi : 
Plafond : 
>= 8 km
>= 3000ft
5 à 8 km
1000 à 3000 ft
1500m à 5 km
500 à 1000 ft
800 à 1500m
200 à 500 ft
< 800m
< 200 ft
Symboles :   Orages  Brouillard  Fortes neiges  Fortes précipitations  Vent > 20 kt






- Altitude de l'aérodrome : 728 ft
- Code IATA : BUF


KBUF - Buffalo Niagara International

DERNIER METAR :
  • 190254Z 26012KT 10SM FEW039 SCT043 SCT050 02/M05 A3009 RMK AO2 SLP197 T00221050 53025

METARs EXPIRÉS :
  • 190154Z 25013KT 10SM FEW035 BKN044 03/M03 A3006 RMK AO2 SLP185 T00281028
  • 190054Z 24009KT 10SM FEW017 FEW035 BKN045 03/M01 A3004 RMK AO2 SLP180 T00281011

TAF KBUF
Valide du 19 à 03h jusqu'au 20 à 00h UTC


190305Z 1903/1924 26012KT P6SM SCT040
TEMPO 1904/1907 BKN040
FM190700 26012G20KT P6SM BKN025
FM191200 26012G18KT 4SM -SHSN BR OVC025
FM191500 29014G22KT P6SM BKN035
FM192100 27012KT P6SM BKN035



MET'MAP, la Météo Aéronautique d'un coup d'oeil ! - Copyright ORBIFLY Décembre 2007 - Disclaimer

ORBIFLY MET'MAP TEAM :

Programmation & Développement : Alexandra Zaïnal
Sur une idée originale de : Baudouin d'Aumeries
Assistance à la programmation : Marc-Olivier Méhu
Soutien technique & logistique : Manuel Goepfert

Contact : metmap@orbifly.com




SOURCES & CREDITS :

   NOAA       Earth
Advisory